Impacts TAF Board
For situational awareness. Not to be used for flight planning purposes.
IDs:

KDEN - Denver Intl, CO, US

Issued at 2031 UTC 08 Aug 2020
Updated at 2134 UTC 08 Aug 2020
Potential Impact None Slight Moderate High
Time2053Z 08/22Z 08/23Z 09/00Z 09/01Z 09/02Z 09/03Z 09/04Z 09/05Z 09/06Z 09/07Z 09/08Z 09/09Z 09/10Z>>
Type OBS PRVL PRVL PRVL PRVL PRVL PRVL PRVL PRVL PRVL PRVL PRVL PRVL PRVL
VIS 10 >6 >6 >6 >6 >6 >6 >6 >6 >6 >6 >6 >6 >6
CIG -- 220 220 220 220 220 220 -- -- -- -- -- -- --
Cover FEW BKN BKN BKN BKN BKN BKN SCT SCT SCT SCT SCT SCT SCT
FltCat VFR VFR VFR VFR VFR VFR VFR VFR VFR VFR VFR VFR VFR VFR
WX -- -- -- -- -- -- -- -- -- -- -- -- -- --
WDir 140 VRB VRB VRB 110 110 110 200 200 200 200 200 200 240
WSpd 4 5 5 5 10 10 10 12 12 12 12 12 12 7
WGst -- -- -- -- -- -- -- -- -- -- -- -- -- --
Raw TAF
KDEN 082031Z 0821/0924 VRB05KT P6SM FEW120 BKN220
  FM090100 11010KT P6SM SCT130 BKN220
  FM090400 20012KT P6SM FEW130 SCT220
  FM091000 24007KT P6SM SCT220
  FM091700 01007KT P6SM FEW120 SCT220


Raw METAR
KDEN 082053Z 14004KT 10SM FEW120 FEW150 FEW200 34/M05 A3011 RMK AO2 SLP099 T03441050 58010
KDEN 081953Z 32005KT 10SM FEW120 FEW150 SCT200 34/M06 A3012 RMK AO2 SLP100 T03391056
KDEN 081853Z 30007KT 10SM FEW120 SCT140 SCT200 34/M06 A3014 RMK AO2 SLP110 T03391061

METAR Board
Radar Display
Forecast Discussion
For situational awareness. Not to be used for flight planning purposes.